sensor_id;sensor_type;location;lat;lon;timestamp;pressure;altitude;pressure_sealevel;temperature;humidity
50011;BME280;35899;50.352;19.390;2022-10-31T00:01:00;98146.27;;;10.10;93.71
50011;BME280;35899;50.352;19.390;2022-10-31T00:03:29;98154.14;;;10.09;93.97
50011;BME280;35899;50.352;19.390;2022-10-31T00:05:55;98153.78;;;10.08;94.08
50011;BME280;35899;50.352;19.390;2022-10-31T00:08:22;98149.07;;;10.07;94.04
50011;BME280;35899;50.352;19.390;2022-10-31T00:10:48;98149.73;;;10.04;93.47
50011;BME280;35899;50.352;19.390;2022-10-31T00:13:15;98150.02;;;9.99;93.49
50011;BME280;35899;50.352;19.390;2022-10-31T00:15:41;98149.66;;;9.98;93.75
50011;BME280;35899;50.352;19.390;2022-10-31T00:18:09;98149.66;;;9.98;94.00
50011;BME280;35899;50.352;19.390;2022-10-31T00:20:36;98143.17;;;9.98;94.12
50011;BME280;35899;50.352;19.390;2022-10-31T00:23:04;98149.94;;;9.93;93.62
50011;BME280;35899;50.352;19.390;2022-10-31T00:25:36;98148.95;;;9.89;93.57
50011;BME280;35899;50.352;19.390;2022-10-31T00:28:03;98149.86;;;9.88;93.70
50011;BME280;35899;50.352;19.390;2022-10-31T00:30:31;98144.98;;;9.83;93.56
50011;BME280;35899;50.352;19.390;2022-10-31T00:32:57;98146.02;;;9.81;93.53
50011;BME280;35899;50.352;19.390;2022-10-31T00:35:24;98151.65;;;9.80;93.93
50011;BME280;35899;50.352;19.390;2022-10-31T00:37:52;98152.69;;;9.77;94.09
50011;BME280;35899;50.352;19.390;2022-10-31T00:40:18;98150.56;;;9.77;93.94
50011;BME280;35899;50.352;19.390;2022-10-31T00:42:44;98154.38;;;9.71;93.08
50011;BME280;35899;50.352;19.390;2022-10-31T00:45:11;98144.77;;;9.59;92.17
50011;BME280;35899;50.352;19.390;2022-10-31T00:47:38;98151.93;;;9.48;91.78
50011;BME280;35899;50.352;19.390;2022-10-31T00:50:06;98150.34;;;9.38;91.55
50011;BME280;35899;50.352;19.390;2022-10-31T00:52:33;98150.47;;;9.30;91.42
50011;BME280;35899;50.352;19.390;2022-10-31T00:54:59;98146.67;;;9.21;91.09
50011;BME280;35899;50.352;19.390;2022-10-31T00:57:26;98154.08;;;9.13;91.13
50011;BME280;35899;50.352;19.390;2022-10-31T00:59:52;98151.02;;;9.13;92.00
50011;BME280;35899;50.352;19.390;2022-10-31T01:02:19;98156.67;;;9.13;92.40
50011;BME280;35899;50.352;19.390;2022-10-31T01:04:45;98152.14;;;9.09;92.26
50011;BME280;35899;50.352;19.390;2022-10-31T01:07:13;98153.60;;;9.06;91.98
50011;BME280;35899;50.352;19.390;2022-10-31T01:09:39;98158.34;;;9.07;92.47
50011;BME280;35899;50.352;19.390;2022-10-31T01:12:06;98161.28;;;9.08;92.54
50011;BME280;35899;50.352;19.390;2022-10-31T01:14:33;98148.81;;;9.07;92.70
50011;BME280;35899;50.352;19.390;2022-10-31T01:16:59;98153.34;;;9.11;93.15
50011;BME280;35899;50.352;19.390;2022-10-31T01:19:26;98154.17;;;9.11;92.80
50011;BME280;35899;50.352;19.390;2022-10-31T01:21:55;98149.81;;;9.12;92.68
50011;BME280;35899;50.352;19.390;2022-10-31T01:24:21;98147.22;;;9.12;92.87
50011;BME280;35899;50.352;19.390;2022-10-31T01:26:48;98150.58;;;9.14;92.84
50011;BME280;35899;50.352;19.390;2022-10-31T01:29:14;98146.31;;;9.13;92.85
50011;BME280;35899;50.352;19.390;2022-10-31T01:31:40;98148.91;;;9.13;92.72
50011;BME280;35899;50.352;19.390;2022-10-31T01:34:12;98146.23;;;9.14;92.62
50011;BME280;35899;50.352;19.390;2022-10-31T01:36:40;98142.69;;;9.15;92.99
50011;BME280;35899;50.352;19.390;2022-10-31T01:39:09;98141.78;;;9.16;93.20
50011;BME280;35899;50.352;19.390;2022-10-31T01:41:43;98137.25;;;9.13;92.88
50011;BME280;35899;50.352;19.390;2022-10-31T01:46:54;98141.13;;;9.13;93.20
50011;BME280;35899;50.352;19.390;2022-10-31T01:49:46;98135.95;;;9.13;93.18
50011;BME280;35899;50.352;19.390;2022-10-31T01:55:09;98133.01;;;9.05;92.21
50011;BME280;35899;50.352;19.390;2022-10-31T01:57:39;98136.04;;;9.04;92.40
50011;BME280;35899;50.352;19.390;2022-10-31T02:00:10;98141.60;;;9.05;92.30
50011;BME280;35899;50.352;19.390;2022-10-31T02:02:40;98138.92;;;9.07;92.45
50011;BME280;35899;50.352;19.390;2022-10-31T02:05:10;98144.84;;;9.09;92.68
50011;BME280;35899;50.352;19.390;2022-10-31T02:10:59;98136.98;;;9.03;91.87
50011;BME280;35899;50.352;19.390;2022-10-31T02:13:28;98141.80;;;8.95;91.37
50011;BME280;35899;50.352;19.390;2022-10-31T02:15:58;98148.17;;;8.89;91.00
50011;BME280;35899;50.352;19.390;2022-10-31T02:18:27;98147.34;;;8.82;90.83
50011;BME280;35899;50.352;19.390;2022-10-31T02:30:18;98148.78;;;8.57;90.60
50011;BME280;35899;50.352;19.390;2022-10-31T02:44:15;98151.43;;;8.48;91.88
50011;BME280;35899;50.352;19.390;2022-10-31T02:47:11;98150.52;;;8.49;92.19
50011;BME280;35899;50.352;19.390;2022-10-31T02:49:42;98153.84;;;8.51;92.53
50011;BME280;35899;50.352;19.390;2022-10-31T02:52:17;98152.00;;;8.53;93.25
50011;BME280;35899;50.352;19.390;2022-10-31T02:54:47;98158.39;;;8.55;93.17
50011;BME280;35899;50.352;19.390;2022-10-31T02:57:17;98161.80;;;8.55;92.87
50011;BME280;35899;50.352;19.390;2022-10-31T02:59:58;98157.09;;;8.55;92.87
50011;BME280;35899;50.352;19.390;2022-10-31T03:02:29;98159.77;;;8.53;92.84
50011;BME280;35899;50.352;19.390;2022-10-31T03:05:28;98161.97;;;8.52;92.69
50011;BME280;35899;50.352;19.390;2022-10-31T03:10:58;98157.07;;;8.48;92.85
50011;BME280;35899;50.352;19.390;2022-10-31T03:13:44;98163.23;;;8.45;92.99
50011;BME280;35899;50.352;19.390;2022-10-31T03:16:26;98168.33;;;8.47;93.46
50011;BME280;35899;50.352;19.390;2022-10-31T03:19:03;98169.92;;;8.49;93.91
50011;BME280;35899;50.352;19.390;2022-10-31T03:21:37;98171.95;;;8.51;93.81
50011;BME280;35899;50.352;19.390;2022-10-31T03:24:16;98178.04;;;8.50;93.79
50011;BME280;35899;50.352;19.390;2022-10-31T03:26:46;98168.88;;;8.45;92.91
50011;BME280;35899;50.352;19.390;2022-10-31T03:29:16;98170.03;;;8.39;92.81
50011;BME280;35899;50.352;19.390;2022-10-31T03:31:51;98162.63;;;8.33;92.59
50011;BME280;35899;50.352;19.390;2022-10-31T03:34:17;98168.71;;;8.32;92.81
50011;BME280;35899;50.352;19.390;2022-10-31T03:36:48;98164.09;;;8.30;92.93
50011;BME280;35899;50.352;19.390;2022-10-31T03:39:18;98163.89;;;8.26;92.47
50011;BME280;35899;50.352;19.390;2022-10-31T03:42:00;98165.54;;;8.19;92.07
50011;BME280;35899;50.352;19.390;2022-10-31T03:44:26;98172.80;;;8.13;91.56
50011;BME280;35899;50.352;19.390;2022-10-31T03:46:56;98173.15;;;8.07;91.47
50011;BME280;35899;50.352;19.390;2022-10-31T03:49:23;98171.37;;;8.00;91.46
50011;BME280;35899;50.352;19.390;2022-10-31T03:54:42;98182.22;;;7.91;91.15
50011;BME280;35899;50.352;19.390;2022-10-31T03:57:14;98186.45;;;7.85;91.14
50011;BME280;35899;50.352;19.390;2022-10-31T03:59:50;98186.60;;;7.81;91.02
50011;BME280;35899;50.352;19.390;2022-10-31T04:02:26;98185.94;;;7.78;90.88
50011;BME280;35899;50.352;19.390;2022-10-31T04:04:55;98188.52;;;7.78;91.58
50011;BME280;35899;50.352;19.390;2022-10-31T04:07:25;98190.76;;;7.84;92.24
50011;BME280;35899;50.352;19.390;2022-10-31T04:09:55;98187.27;;;7.85;92.33
50011;BME280;35899;50.352;19.390;2022-10-31T04:12:24;98186.26;;;7.88;92.62
50011;BME280;35899;50.352;19.390;2022-10-31T04:14:54;98188.30;;;7.90;92.64
50011;BME280;35899;50.352;19.390;2022-10-31T04:17:23;98187.75;;;7.92;92.71
50011;BME280;35899;50.352;19.390;2022-10-31T04:19:53;98191.27;;;7.91;92.62
50011;BME280;35899;50.352;19.390;2022-10-31T04:22:20;98192.17;;;7.90;92.53
50011;BME280;35899;50.352;19.390;2022-10-31T04:24:46;98191.81;;;7.89;92.23
50011;BME280;35899;50.352;19.390;2022-10-31T04:27:14;98189.78;;;7.87;92.24
50011;BME280;35899;50.352;19.390;2022-10-31T04:29:40;98184.77;;;7.83;92.14
50011;BME280;35899;50.352;19.390;2022-10-31T04:32:08;98190.63;;;7.78;91.44
50011;BME280;35899;50.352;19.390;2022-10-31T04:34:34;98186.95;;;7.75;91.58
50011;BME280;35899;50.352;19.390;2022-10-31T04:37:00;98185.45;;;7.71;91.14
50011;BME280;35899;50.352;19.390;2022-10-31T04:39:27;98186.15;;;7.66;91.08
50011;BME280;35899;50.352;19.390;2022-10-31T04:42:12;98187.59;;;7.63;90.93
50011;BME280;35899;50.352;19.390;2022-10-31T04:44:38;98186.84;;;7.61;91.12
50011;BME280;35899;50.352;19.390;2022-10-31T04:47:05;98191.55;;;7.61;91.48
50011;BME280;35899;50.352;19.390;2022-10-31T04:49:31;98192.69;;;7.64;91.98
50011;BME280;35899;50.352;19.390;2022-10-31T04:51:59;98191.78;;;7.66;92.16
50011;BME280;35899;50.352;19.390;2022-10-31T04:54:26;98192.61;;;7.66;92.23
50011;BME280;35899;50.352;19.390;2022-10-31T04:57:10;98186.69;;;7.64;91.71
50011;BME280;35899;50.352;19.390;2022-10-31T04:59:37;98189.97;;;7.59;91.41
50011;BME280;35899;50.352;19.390;2022-10-31T05:02:04;98189.97;;;7.59;91.72
50011;BME280;35899;50.352;19.390;2022-10-31T05:04:49;98189.14;;;7.58;91.91
50011;BME280;35899;50.352;19.390;2022-10-31T05:07:16;98193.56;;;7.56;91.82
50011;BME280;35899;50.352;19.390;2022-10-31T05:09:43;98195.48;;;7.53;91.73
50011;BME280;35899;50.352;19.390;2022-10-31T05:12:09;98191.75;;;7.50;91.71
50011;BME280;35899;50.352;19.390;2022-10-31T05:14:55;98191.00;;;7.48;91.74
50011;BME280;35899;50.352;19.390;2022-10-31T05:17:40;98189.58;;;7.42;91.55
50011;BME280;35899;50.352;19.390;2022-10-31T05:20:23;98197.19;;;7.36;91.58
50011;BME280;35899;50.352;19.390;2022-10-31T05:23:05;98196.52;;;7.33;91.62
50011;BME280;35899;50.352;19.390;2022-10-31T05:25:32;98196.77;;;7.28;91.36
50011;BME280;35899;50.352;19.390;2022-10-31T05:28:00;98204.59;;;7.27;91.22
50011;BME280;35899;50.352;19.390;2022-10-31T05:30:29;98196.17;;;7.23;90.84
50011;BME280;35899;50.352;19.390;2022-10-31T05:32:57;98206.75;;;7.18;90.51
50011;BME280;35899;50.352;19.390;2022-10-31T05:35:44;98204.03;;;7.13;90.14
50011;BME280;35899;50.352;19.390;2022-10-31T05:38:12;98204.49;;;7.03;89.72
50011;BME280;35899;50.352;19.390;2022-10-31T05:40:38;98209.98;;;6.97;89.71
50011;BME280;35899;50.352;19.390;2022-10-31T05:43:05;98209.91;;;6.90;89.26
50011;BME280;35899;50.352;19.390;2022-10-31T05:45:31;98218.86;;;6.83;89.04
50011;BME280;35899;50.352;19.390;2022-10-31T05:48:01;98221.00;;;6.75;88.66
50011;BME280;35899;50.352;19.390;2022-10-31T05:50:42;98223.80;;;6.61;88.25
50011;BME280;35899;50.352;19.390;2022-10-31T05:53:10;98215.98;;;6.54;88.85
50011;BME280;35899;50.352;19.390;2022-10-31T05:55:37;98223.36;;;6.53;89.54
50011;BME280;35899;50.352;19.390;2022-10-31T05:58:10;98223.88;;;6.60;90.36
50011;BME280;35899;50.352;19.390;2022-10-31T06:00:37;98224.78;;;6.68;90.67
50011;BME280;35899;50.352;19.390;2022-10-31T06:03:07;98230.92;;;6.74;90.77
50011;BME280;35899;50.352;19.390;2022-10-31T06:05:55;98237.09;;;6.80;90.79
50011;BME280;35899;50.352;19.390;2022-10-31T06:08:23;98233.27;;;6.87;91.11
50011;BME280;35899;50.352;19.390;2022-10-31T06:10:50;98235.39;;;6.96;91.47
50011;BME280;35899;50.352;19.390;2022-10-31T06:13:18;98237.05;;;7.06;91.51
50011;BME280;35899;50.352;19.390;2022-10-31T06:15:46;98234.83;;;7.16;91.49
50011;BME280;35899;50.352;19.390;2022-10-31T06:18:13;98233.53;;;7.24;91.62
50011;BME280;35899;50.352;19.390;2022-10-31T06:20:47;98238.44;;;7.38;91.97
50011;BME280;35899;50.352;19.390;2022-10-31T06:23:15;98237.34;;;7.51;92.12
50011;BME280;35899;50.352;19.390;2022-10-31T06:25:42;98238.16;;;7.60;91.96
50011;BME280;35899;50.352;19.390;2022-10-31T06:28:11;98239.66;;;7.64;91.42
50011;BME280;35899;50.352;19.390;2022-10-31T06:30:47;98247.81;;;7.72;91.47
50011;BME280;35899;50.352;19.390;2022-10-31T06:33:15;98239.03;;;7.83;91.71
50011;BME280;35899;50.352;19.390;2022-10-31T06:35:46;98247.59;;;7.93;91.57
50011;BME280;35899;50.352;19.390;2022-10-31T06:38:14;98247.25;;;7.99;91.20
50011;BME280;35899;50.352;19.390;2022-10-31T06:40:42;98244.97;;;8.01;90.84
50011;BME280;35899;50.352;19.390;2022-10-31T06:43:20;98253.48;;;8.03;90.61
50011;BME280;35899;50.352;19.390;2022-10-31T06:45:47;98250.91;;;8.11;90.74
50011;BME280;35899;50.352;19.390;2022-10-31T06:48:22;98248.91;;;8.16;90.86
50011;BME280;35899;50.352;19.390;2022-10-31T06:50:59;98251.46;;;8.25;91.08
50011;BME280;35899;50.352;19.390;2022-10-31T06:53:27;98256.02;;;8.35;90.98
50011;BME280;35899;50.352;19.390;2022-10-31T06:55:57;98257.30;;;8.44;91.05
50011;BME280;35899;50.352;19.390;2022-10-31T06:58:24;98261.57;;;8.52;91.14
50011;BME280;35899;50.352;19.390;2022-10-31T07:00:53;98260.70;;;8.60;91.15
50011;BME280;35899;50.352;19.390;2022-10-31T07:03:19;98260.14;;;8.70;91.32
50011;BME280;35899;50.352;19.390;2022-10-31T07:05:47;98265.35;;;8.77;91.15
50011;BME280;35899;50.352;19.390;2022-10-31T07:08:14;98257.78;;;8.81;91.08
50011;BME280;35899;50.352;19.390;2022-10-31T07:10:42;98263.80;;;8.89;91.18
50011;BME280;35899;50.352;19.390;2022-10-31T07:13:12;98263.00;;;8.95;91.19
50011;BME280;35899;50.352;19.390;2022-10-31T07:15:42;98268.64;;;9.02;91.26
50011;BME280;35899;50.352;19.390;2022-10-31T07:18:11;98271.72;;;9.09;91.35
50011;BME280;35899;50.352;19.390;2022-10-31T07:20:38;98278.30;;;9.14;91.23
50011;BME280;35899;50.352;19.390;2022-10-31T07:23:04;98276.72;;;9.19;91.17
50011;BME280;35899;50.352;19.390;2022-10-31T07:25:31;98281.92;;;9.26;91.39
50011;BME280;35899;50.352;19.390;2022-10-31T07:28:00;98277.48;;;9.35;91.51
50011;BME280;35899;50.352;19.390;2022-10-31T07:30:27;98277.12;;;9.42;91.51
50011;BME280;35899;50.352;19.390;2022-10-31T07:32:55;98282.31;;;9.49;91.74
50011;BME280;35899;50.352;19.390;2022-10-31T07:35:24;98281.38;;;9.57;91.69
50011;BME280;35899;50.352;19.390;2022-10-31T07:37:58;98284.33;;;9.65;91.77
50011;BME280;35899;50.352;19.390;2022-10-31T07:40:33;98286.01;;;9.73;91.98
50011;BME280;35899;50.352;19.390;2022-10-31T07:42:59;98280.62;;;9.84;92.23
50011;BME280;35899;50.352;19.390;2022-10-31T07:45:31;98283.86;;;9.94;92.50
50011;BME280;35899;50.352;19.390;2022-10-31T07:48:17;98286.53;;;10.07;92.71
50011;BME280;35899;50.352;19.390;2022-10-31T07:50:49;98291.58;;;10.23;92.98
50011;BME280;35899;50.352;19.390;2022-10-31T07:53:23;98291.03;;;10.32;92.64
50011;BME280;35899;50.352;19.390;2022-10-31T07:55:51;98292.66;;;10.41;92.64
50011;BME280;35899;50.352;19.390;2022-10-31T07:58:18;98287.46;;;10.48;92.65
50011;BME280;35899;50.352;19.390;2022-10-31T08:00:46;98290.30;;;10.58;92.80
50011;BME280;35899;50.352;19.390;2022-10-31T08:03:17;98285.81;;;10.67;92.90
50011;BME280;35899;50.352;19.390;2022-10-31T08:06:03;98284.27;;;10.77;93.19
50011;BME280;35899;50.352;19.390;2022-10-31T08:08:32;98284.56;;;10.92;93.71
50011;BME280;35899;50.352;19.390;2022-10-31T08:10:58;98282.24;;;11.08;94.09
50011;BME280;35899;50.352;19.390;2022-10-31T08:13:25;98282.55;;;11.23;94.16
50011;BME280;35899;50.352;19.390;2022-10-31T08:15:52;98280.66;;;11.38;94.14
50011;BME280;35899;50.352;19.390;2022-10-31T08:18:21;98281.76;;;11.54;94.25
50011;BME280;35899;50.352;19.390;2022-10-31T08:20:48;98282.10;;;11.68;94.25
50011;BME280;35899;50.352;19.390;2022-10-31T08:23:14;98284.80;;;11.79;94.38
50011;BME280;35899;50.352;19.390;2022-10-31T08:25:41;98285.53;;;11.94;94.62
50011;BME280;35899;50.352;19.390;2022-10-31T08:28:10;98281.03;;;12.09;94.76
50011;BME280;35899;50.352;19.390;2022-10-31T08:30:37;98280.52;;;12.22;94.66
50011;BME280;35899;50.352;19.390;2022-10-31T08:33:24;98278.94;;;12.38;94.85
50011;BME280;35899;50.352;19.390;2022-10-31T08:36:09;98278.65;;;12.54;94.76
50011;BME280;35899;50.352;19.390;2022-10-31T08:38:43;98275.41;;;12.69;94.49
50011;BME280;35899;50.352;19.390;2022-10-31T08:41:11;98275.58;;;12.84;94.28
50011;BME280;35899;50.352;19.390;2022-10-31T08:43:38;98278.93;;;12.98;94.22
50011;BME280;35899;50.352;19.390;2022-10-31T08:46:05;98281.46;;;13.10;94.04
50011;BME280;35899;50.352;19.390;2022-10-31T08:48:32;98279.11;;;13.24;94.30
50011;BME280;35899;50.352;19.390;2022-10-31T08:50:59;98279.98;;;13.36;94.05
50011;BME280;35899;50.352;19.390;2022-10-31T08:53:27;98279.89;;;13.49;94.14
50011;BME280;35899;50.352;19.390;2022-10-31T08:55:56;98276.92;;;13.65;94.23
50011;BME280;35899;50.352;19.390;2022-10-31T08:58:24;98277.52;;;13.80;93.96
50011;BME280;35899;50.352;19.390;2022-10-31T09:00:54;98280.71;;;13.95;93.88
50011;BME280;35899;50.352;19.390;2022-10-31T09:03:26;98286.52;;;14.10;93.76
50011;BME280;35899;50.352;19.390;2022-10-31T09:05:59;98284.21;;;14.27;93.01
50011;BME280;35899;50.352;19.390;2022-10-31T09:08:29;98285.23;;;14.59;92.51
50011;BME280;35899;50.352;19.390;2022-10-31T09:10:57;98284.22;;;14.98;91.80
50011;BME280;35899;50.352;19.390;2022-10-31T09:13:25;98282.33;;;15.36;91.05
50011;BME280;35899;50.352;19.390;2022-10-31T09:16:12;98288.31;;;15.85;90.90
50011;BME280;35899;50.352;19.390;2022-10-31T09:18:38;98280.88;;;16.40;90.43
50011;BME280;35899;50.352;19.390;2022-10-31T09:21:05;98281.33;;;16.84;88.89
50011;BME280;35899;50.352;19.390;2022-10-31T09:23:31;98282.86;;;17.30;87.62
50011;BME280;35899;50.352;19.390;2022-10-31T09:26:00;98285.98;;;17.76;87.51
50011;BME280;35899;50.352;19.390;2022-10-31T09:28:30;98285.46;;;18.28;86.72
50011;BME280;35899;50.352;19.390;2022-10-31T09:30:59;98283.95;;;18.75;84.73
50011;BME280;35899;50.352;19.390;2022-10-31T09:33:43;98286.48;;;19.21;83.46
50011;BME280;35899;50.352;19.390;2022-10-31T09:36:12;98287.87;;;19.60;81.04
50011;BME280;35899;50.352;19.390;2022-10-31T09:38:39;98284.77;;;19.95;79.93
50011;BME280;35899;50.352;19.390;2022-10-31T09:49:45;98280.42;;;21.84;74.84
50011;BME280;35899;50.352;19.390;2022-10-31T09:52:16;98287.63;;;22.38;74.08
50011;BME280;35899;50.352;19.390;2022-10-31T09:54:56;98283.27;;;22.72;71.97
50011;BME280;35899;50.352;19.390;2022-10-31T09:57:28;98281.36;;;23.08;71.01
50011;BME280;35899;50.352;19.390;2022-10-31T10:00:04;98283.41;;;23.36;68.82
50011;BME280;35899;50.352;19.390;2022-10-31T10:02:52;98285.09;;;23.67;67.71
50011;BME280;35899;50.352;19.390;2022-10-31T10:05:32;98285.95;;;23.93;66.13
50011;BME280;35899;50.352;19.390;2022-10-31T10:08:17;98280.89;;;24.28;65.26
50011;BME280;35899;50.352;19.390;2022-10-31T10:13:54;98279.11;;;25.04;61.22
50011;BME280;35899;50.352;19.390;2022-10-31T10:22:25;98277.91;;;25.63;58.60
50011;BME280;35899;50.352;19.390;2022-10-31T10:25:21;98278.81;;;26.01;57.61
50011;BME280;35899;50.352;19.390;2022-10-31T10:30:59;98276.63;;;26.93;56.23
50011;BME280;35899;50.352;19.390;2022-10-31T10:33:35;98271.91;;;27.28;54.47
50011;BME280;35899;50.352;19.390;2022-10-31T10:36:12;98277.61;;;27.58;52.65
50011;BME280;35899;50.352;19.390;2022-10-31T10:38:52;98270.68;;;27.93;51.83
50011;BME280;35899;50.352;19.390;2022-10-31T10:41:31;98270.85;;;28.21;50.64
50011;BME280;35899;50.352;19.390;2022-10-31T10:43:58;98279.05;;;28.26;49.31
50011;BME280;35899;50.352;19.390;2022-10-31T10:46:42;98277.87;;;28.54;49.04
50011;BME280;35899;50.352;19.390;2022-10-31T10:49:18;98270.70;;;28.95;48.82
50011;BME280;35899;50.352;19.390;2022-10-31T10:51:59;98269.73;;;29.49;48.15
50011;BME280;35899;50.352;19.390;2022-10-31T10:54:43;98266.42;;;29.91;47.80
50011;BME280;35899;50.352;19.390;2022-10-31T11:00:11;98262.69;;;30.50;45.57
50011;BME280;35899;50.352;19.390;2022-10-31T11:02:38;98270.23;;;31.16;45.40
50011;BME280;35899;50.352;19.390;2022-10-31T11:05:12;98267.09;;;31.54;43.75
50011;BME280;35899;50.352;19.390;2022-10-31T11:07:38;98278.08;;;31.79;42.63
50011;BME280;35899;50.352;19.390;2022-10-31T11:10:05;98276.02;;;31.95;41.51
50011;BME280;35899;50.352;19.390;2022-10-31T11:12:35;98272.98;;;31.92;40.22
50011;BME280;35899;50.352;19.390;2022-10-31T11:15:27;98272.91;;;32.01;39.34
50011;BME280;35899;50.352;19.390;2022-10-31T11:17:48;98271.05;;;32.02;38.72
50011;BME280;35899;50.352;19.390;2022-10-31T11:22:47;98262.43;;;32.71;38.78
50011;BME280;35899;50.352;19.390;2022-10-31T11:25:25;98253.14;;;32.79;36.85
50011;BME280;35899;50.352;19.390;2022-10-31T11:28:08;98263.84;;;32.77;36.96
50011;BME280;35899;50.352;19.390;2022-10-31T11:30:36;98256.09;;;33.11;37.74
50011;BME280;35899;50.352;19.390;2022-10-31T11:33:19;98251.95;;;33.43;36.82
50011;BME280;35899;50.352;19.390;2022-10-31T11:35:58;98255.80;;;33.88;36.60
50011;BME280;35899;50.352;19.390;2022-10-31T11:38:33;98250.28;;;34.22;36.45
50011;BME280;35899;50.352;19.390;2022-10-31T11:41:10;98253.20;;;34.45;35.00
50011;BME280;35899;50.352;19.390;2022-10-31T11:43:56;98252.23;;;34.57;35.29
50011;BME280;35899;50.352;19.390;2022-10-31T11:46:44;98253.75;;;34.75;34.77
50011;BME280;35899;50.352;19.390;2022-10-31T11:49:19;98253.75;;;34.75;33.46
50011;BME280;35899;50.352;19.390;2022-10-31T11:51:54;98249.86;;;34.90;34.21
50011;BME280;35899;50.352;19.390;2022-10-31T11:54:31;98249.92;;;35.40;33.69
50011;BME280;35899;50.352;19.390;2022-10-31T11:57:02;98243.28;;;35.61;33.91
50011;BME280;35899;50.352;19.390;2022-10-31T11:59:31;98245.93;;;36.16;33.86
50011;BME280;35899;50.352;19.390;2022-10-31T12:02:00;98254.13;;;36.52;33.32
50011;BME280;35899;50.352;19.390;2022-10-31T12:04:40;98241.94;;;36.42;31.60
50011;BME280;35899;50.352;19.390;2022-10-31T12:07:05;98244.66;;;36.52;31.95
50011;BME280;35899;50.352;19.390;2022-10-31T12:09:34;98244.12;;;36.50;31.64
50011;BME280;35899;50.352;19.390;2022-10-31T12:12:16;98249.00;;;36.64;32.07
50011;BME280;35899;50.352;19.390;2022-10-31T12:15:34;98243.88;;;36.93;32.31
50011;BME280;35899;50.352;19.390;2022-10-31T12:21:03;98237.91;;;37.04;31.21
50011;BME280;35899;50.352;19.390;2022-10-31T12:26:34;98237.62;;;35.65;31.44
50011;BME280;35899;50.352;19.390;2022-10-31T12:32:11;98226.30;;;32.99;31.73
50011;BME280;35899;50.352;19.390;2022-10-31T12:38:21;98240.29;;;32.07;33.81
50011;BME280;35899;50.352;19.390;2022-10-31T12:41:22;98234.22;;;31.73;33.98
50011;BME280;35899;50.352;19.390;2022-10-31T12:44:00;98229.12;;;31.86;34.47
50011;BME280;35899;50.352;19.390;2022-10-31T13:01:40;98219.38;;;24.82;40.51
50011;BME280;35899;50.352;19.390;2022-10-31T13:04:24;98217.81;;;24.08;41.51
50011;BME280;35899;50.352;19.390;2022-10-31T13:06:56;98219.66;;;23.52;42.54
50011;BME280;35899;50.352;19.390;2022-10-31T13:09:33;98218.00;;;23.07;43.43
50011;BME280;35899;50.352;19.390;2022-10-31T13:12:14;98218.30;;;22.70;44.20
50011;BME280;35899;50.352;19.390;2022-10-31T13:14:54;98220.70;;;22.37;44.91
50011;BME280;35899;50.352;19.390;2022-10-31T13:17:34;98216.38;;;22.09;45.41
50011;BME280;35899;50.352;19.390;2022-10-31T13:20:20;98209.89;;;21.84;46.13
50011;BME280;35899;50.352;19.390;2022-10-31T13:23:04;98218.09;;;21.58;46.77
50011;BME280;35899;50.352;19.390;2022-10-31T13:25:32;98213.02;;;21.32;47.48
50011;BME280;35899;50.352;19.390;2022-10-31T13:28:28;98213.91;;;21.08;48.08
50011;BME280;35899;50.352;19.390;2022-10-31T13:30:39;98211.13;;;20.89;48.42
50011;BME280;35899;50.352;19.390;2022-10-31T13:33:27;98216.25;;;20.70;49.05
50011;BME280;35899;50.352;19.390;2022-10-31T13:39:03;98208.46;;;20.31;49.96
50011;BME280;35899;50.352;19.390;2022-10-31T13:42:45;98211.88;;;20.16;50.72
50011;BME280;35899;50.352;19.390;2022-10-31T13:44:28;98210.19;;;19.98;51.15
50011;BME280;35899;50.352;19.390;2022-10-31T13:46:57;98211.64;;;19.84;51.63
50011;BME280;35899;50.352;19.390;2022-10-31T13:52:13;98215.31;;;19.61;52.43
50011;BME280;35899;50.352;19.390;2022-10-31T13:54:49;98214.27;;;19.50;52.59
50011;BME280;35899;50.352;19.390;2022-10-31T13:57:21;98213.08;;;19.40;53.03
50011;BME280;35899;50.352;19.390;2022-10-31T13:59:57;98220.91;;;19.32;53.38
50011;BME280;35899;50.352;19.390;2022-10-31T14:02:28;98220.52;;;19.23;53.77
50011;BME280;35899;50.352;19.390;2022-10-31T14:05:06;98213.59;;;19.13;54.03
50011;BME280;35899;50.352;19.390;2022-10-31T14:07:42;98212.70;;;19.05;54.50
50011;BME280;35899;50.352;19.390;2022-10-31T14:10:32;98209.67;;;18.95;54.71
50011;BME280;35899;50.352;19.390;2022-10-31T14:13:21;98212.11;;;18.89;55.07
50011;BME280;35899;50.352;19.390;2022-10-31T14:15:59;98207.38;;;18.79;55.33
50011;BME280;35899;50.352;19.390;2022-10-31T14:18:36;98206.97;;;18.69;55.66
50011;BME280;35899;50.352;19.390;2022-10-31T14:22:00;98211.50;;;18.59;56.03
50011;BME280;35899;50.352;19.390;2022-10-31T14:23:52;98212.41;;;18.50;56.26
50011;BME280;35899;50.352;19.390;2022-10-31T14:26:31;98214.62;;;18.41;56.56
50011;BME280;35899;50.352;19.390;2022-10-31T14:29:01;98208.63;;;18.30;56.88
50011;BME280;35899;50.352;19.390;2022-10-31T14:34:35;98210.44;;;18.16;57.43
50011;BME280;35899;50.352;19.390;2022-10-31T14:43:02;98208.27;;;17.93;58.27
50011;BME280;35899;50.352;19.390;2022-10-31T14:45:48;98203.39;;;17.85;58.60
50011;BME280;35899;50.352;19.390;2022-10-31T14:51:12;98197.77;;;17.70;59.10
50011;BME280;35899;50.352;19.390;2022-10-31T14:53:45;98190.13;;;17.63;59.31
50011;BME280;35899;50.352;19.390;2022-10-31T14:56:33;98194.16;;;17.57;59.45
50011;BME280;35899;50.352;19.390;2022-10-31T14:59:00;98189.32;;;17.48;59.77
50011;BME280;35899;50.352;19.390;2022-10-31T15:01:33;98193.84;;;17.42;59.96
50011;BME280;35899;50.352;19.390;2022-10-31T15:04:08;98193.72;;;17.34;60.14
50011;BME280;35899;50.352;19.390;2022-10-31T15:06:41;98194.57;;;17.25;60.40
50011;BME280;35899;50.352;19.390;2022-10-31T15:09:24;98192.48;;;17.14;60.54